createdAt,value
2023-04-29T00:00:47.397Z,1007.93
2023-04-29T00:01:47.741Z,1007.96
2023-04-29T00:02:48.195Z,1007.91
2023-04-29T00:03:48.472Z,1007.98
2023-04-29T00:04:48.930Z,1007.92
2023-04-29T00:05:49.056Z,1007.94
2023-04-29T00:06:49.326Z,1007.97
2023-04-29T00:07:49.648Z,1007.95
2023-04-29T00:08:49.952Z,1007.94
2023-04-29T00:09:50.618Z,1007.93
2023-04-29T00:10:50.617Z,1007.95
2023-04-29T00:11:50.885Z,1007.95
2023-04-29T00:12:51.202Z,1007.89
2023-04-29T00:13:51.516Z,1007.93
2023-04-29T00:14:51.877Z,1007.92
2023-04-29T00:15:52.172Z,1007.88
2023-04-29T00:16:52.471Z,1007.93
2023-04-29T00:17:52.772Z,1007.96
2023-04-29T00:18:53.078Z,1007.94
2023-04-29T00:19:53.695Z,1007.97
2023-04-29T00:20:53.636Z,1008.01
2023-04-29T00:21:53.955Z,1008.01
2023-04-29T00:22:54.238Z,1007.98
2023-04-29T00:23:54.517Z,1007.99
2023-04-29T00:24:54.845Z,1008.01
2023-04-29T00:25:55.172Z,1007.99
2023-04-29T00:26:55.462Z,1007.99
2023-04-29T00:27:55.749Z,1008.04
2023-04-29T00:28:56.059Z,1008.05
2023-04-29T00:29:56.385Z,1008.01
2023-04-29T00:30:58.231Z,1008.00
2023-04-29T00:31:56.940Z,1008.04
2023-04-29T00:32:57.356Z,1008.04
2023-04-29T00:33:57.557Z,1008.13
2023-04-29T00:34:57.860Z,1008.16
2023-04-29T00:35:58.191Z,1008.15
2023-04-29T00:36:58.458Z,1008.17
2023-04-29T00:37:58.736Z,1008.20
2023-04-29T00:38:59.018Z,1008.18
2023-04-29T00:39:59.315Z,1008.20
2023-04-29T00:40:59.609Z,1008.22
2023-04-29T00:41:59.897Z,1008.21
2023-04-29T00:43:00.161Z,1008.24
2023-04-29T00:44:00.477Z,1008.26
2023-04-29T00:45:00.787Z,1008.28
2023-04-29T00:46:01.120Z,1008.28
2023-04-29T00:47:01.432Z,1008.30
2023-04-29T00:48:01.746Z,1008.28
2023-04-29T00:49:01.970Z,1008.28
2023-04-29T00:50:02.316Z,1008.31
2023-04-29T00:51:02.642Z,1008.31
2023-04-29T00:52:02.894Z,1008.31
2023-04-29T00:53:03.223Z,1008.39
2023-04-29T00:54:03.595Z,1008.36
2023-04-29T00:55:03.871Z,1008.34
2023-04-29T00:56:04.177Z,1008.33
2023-04-29T00:57:04.473Z,1008.32
2023-04-29T00:58:04.770Z,1008.34
2023-04-29T00:59:05.088Z,1008.38
2023-04-29T01:00:05.496Z,1008.38
2023-04-29T01:01:05.663Z,1008.35
2023-04-29T01:02:05.904Z,1008.37
2023-04-29T01:03:06.420Z,1008.39
2023-04-29T01:04:06.663Z,1008.38
2023-04-29T01:05:06.822Z,1008.40
2023-04-29T01:06:07.083Z,1008.37
2023-04-29T01:07:07.373Z,1008.37
2023-04-29T01:08:07.664Z,1008.35
2023-04-29T01:09:07.994Z,1008.34
2023-04-29T01:10:08.342Z,1008.36
2023-04-29T01:11:08.621Z,1008.41
2023-04-29T01:12:08.936Z,1008.42
2023-04-29T01:13:09.250Z,1008.40
2023-04-29T01:14:09.594Z,1008.38
2023-04-29T01:15:09.936Z,1008.42
2023-04-29T01:16:10.253Z,1008.41
2023-04-29T01:17:10.587Z,1008.47
2023-04-29T01:18:10.848Z,1008.42
2023-04-29T01:19:11.155Z,1008.46
2023-04-29T01:20:11.500Z,1008.43
2023-04-29T01:21:11.758Z,1008.42
2023-04-29T01:22:12.074Z,1008.48
2023-04-29T01:23:12.381Z,1008.44
2023-04-29T01:24:12.720Z,1008.43
2023-04-29T01:25:13.008Z,1008.45
2023-04-29T01:26:13.326Z,1008.51
2023-04-29T01:27:13.656Z,1008.57
2023-04-29T01:28:14.004Z,1008.49
2023-04-29T01:29:14.347Z,1008.55
2023-04-29T01:30:14.627Z,1008.54
2023-04-29T01:31:14.990Z,1008.61
2023-04-29T01:32:15.274Z,1008.51
2023-04-29T01:33:15.608Z,1008.53
2023-04-29T01:34:15.830Z,1008.56
2023-04-29T01:35:16.184Z,1008.54
2023-04-29T01:36:16.481Z,1008.61
2023-04-29T01:37:16.823Z,1008.57
2023-04-29T01:38:17.086Z,1008.58
2023-04-29T01:39:17.414Z,1008.61
2023-04-29T01:40:17.718Z,1008.64
2023-04-29T01:41:18.037Z,1008.63
2023-04-29T01:42:18.385Z,1008.68
2023-04-29T01:43:18.710Z,1008.60
2023-04-29T01:44:19.058Z,1008.63
2023-04-29T01:45:19.359Z,1008.69
2023-04-29T01:46:19.699Z,1008.61
2023-04-29T01:47:20.028Z,1008.68
2023-04-29T01:48:20.299Z,1008.65
2023-04-29T01:49:20.589Z,1008.66
2023-04-29T01:50:20.908Z,1008.67
2023-04-29T01:51:21.241Z,1008.67
2023-04-29T01:52:21.554Z,1008.60
2023-04-29T01:53:21.870Z,1008.65
2023-04-29T01:54:22.162Z,1008.67
2023-04-29T01:55:22.502Z,1008.66
2023-04-29T01:56:22.757Z,1008.65
2023-04-29T01:57:23.066Z,1008.70
2023-04-29T01:58:23.407Z,1008.67
2023-04-29T01:59:23.738Z,1008.65
2023-04-29T02:00:24.029Z,1008.70
2023-04-29T02:01:24.553Z,1008.68
2023-04-29T02:02:24.761Z,1008.63
2023-04-29T02:03:25.049Z,1008.70
2023-04-29T02:04:25.245Z,1008.66
2023-04-29T02:05:25.462Z,1008.68
2023-04-29T02:06:25.790Z,1008.66
2023-04-29T02:07:26.131Z,1008.67
2023-04-29T02:08:26.535Z,1008.69
2023-04-29T02:09:26.800Z,1008.73
2023-04-29T02:10:27.114Z,1008.71
2023-04-29T02:11:27.405Z,1008.74
2023-04-29T02:12:27.711Z,1008.78
2023-04-29T02:13:28.006Z,1008.76
2023-04-29T02:14:28.379Z,1008.78
2023-04-29T02:15:28.630Z,1008.79
2023-04-29T02:16:28.953Z,1008.72
2023-04-29T02:17:29.246Z,1008.78
2023-04-29T02:18:29.536Z,1008.79
2023-04-29T02:19:29.836Z,1008.77
2023-04-29T02:20:30.107Z,1008.80
2023-04-29T02:21:30.405Z,1008.82
2023-04-29T02:22:30.749Z,1008.77
2023-04-29T02:23:31.076Z,1008.78
2023-04-29T02:24:31.416Z,1008.83
2023-04-29T02:25:31.715Z,1008.86
2023-04-29T02:26:31.977Z,1008.89
2023-04-29T02:27:32.309Z,1008.89
2023-04-29T02:28:32.597Z,1008.92
2023-04-29T02:29:32.914Z,1008.89
2023-04-29T02:30:33.226Z,1008.94
2023-04-29T02:31:33.546Z,1008.92
2023-04-29T02:32:33.955Z,1008.96
2023-04-29T02:33:34.025Z,1008.95
2023-04-29T02:34:34.384Z,1008.96
2023-04-29T02:35:34.695Z,1008.98
2023-04-29T02:36:35.002Z,1008.93
2023-04-29T02:37:35.322Z,1008.97
2023-04-29T02:38:35.640Z,1008.91
2023-04-29T02:39:35.908Z,1008.95
2023-04-29T02:40:36.240Z,1008.97
2023-04-29T02:41:36.591Z,1008.98
2023-04-29T02:42:36.917Z,1008.98
2023-04-29T02:43:37.215Z,1008.98
2023-04-29T02:44:37.507Z,1008.99
2023-04-29T02:45:37.887Z,1009.00
2023-04-29T02:46:38.123Z,1009.00
2023-04-29T02:47:38.452Z,1009.00
2023-04-29T02:48:38.755Z,1008.99
2023-04-29T02:49:39.013Z,1008.98
2023-04-29T02:50:39.306Z,1009.01
2023-04-29T02:51:39.627Z,1008.96
2023-04-29T02:52:39.947Z,1009.02
2023-04-29T02:53:40.274Z,1009.05
2023-04-29T02:54:40.549Z,1009.07
2023-04-29T02:55:40.897Z,1009.07
2023-04-29T02:56:41.161Z,1009.08
2023-04-29T02:57:41.479Z,1009.04
2023-04-29T02:58:41.776Z,1009.07
2023-04-29T02:59:42.108Z,1009.07
2023-04-29T03:00:42.419Z,1009.08
2023-04-29T03:01:42.780Z,1009.05
2023-04-29T03:02:43.161Z,1009.08
2023-04-29T03:03:43.532Z,1009.07
2023-04-29T03:04:43.699Z,1009.08
2023-04-29T03:05:43.887Z,1009.08
2023-04-29T03:06:44.190Z,1009.14
2023-04-29T03:07:44.494Z,1009.12
2023-04-29T03:08:44.786Z,1009.12
2023-04-29T03:09:45.076Z,1009.10
2023-04-29T03:10:45.397Z,1009.10
2023-04-29T03:11:45.755Z,1009.14
2023-04-29T03:12:45.998Z,1009.10
2023-04-29T03:13:46.337Z,1009.12
2023-04-29T03:14:46.710Z,1009.12
2023-04-29T03:15:47.003Z,1009.13
2023-04-29T03:16:48.214Z,1009.10
2023-04-29T03:17:47.636Z,1009.14
2023-04-29T03:18:47.964Z,1009.10
2023-04-29T03:19:48.246Z,1009.10
2023-04-29T03:20:48.584Z,1009.11
2023-04-29T03:21:48.901Z,1009.10
2023-04-29T03:22:49.299Z,1009.07
2023-04-29T03:23:49.568Z,1009.12
2023-04-29T03:24:49.848Z,1009.13
2023-04-29T03:25:50.230Z,1009.15
2023-04-29T03:26:50.579Z,1009.13
2023-04-29T03:27:50.831Z,1009.15
2023-04-29T03:28:51.187Z,1009.15
2023-04-29T03:29:51.658Z,1009.16
2023-04-29T03:30:51.727Z,1009.20
2023-04-29T03:31:52.240Z,1009.16
2023-04-29T03:32:52.457Z,1009.16
2023-04-29T03:33:52.847Z,1009.20
2023-04-29T03:34:52.979Z,1009.19
2023-04-29T03:35:53.285Z,1009.13
2023-04-29T03:36:53.629Z,1009.21
2023-04-29T03:37:53.964Z,1009.16
2023-04-29T03:38:54.275Z,1009.24
2023-04-29T03:39:54.766Z,1009.17
2023-04-29T03:40:54.810Z,1009.19
2023-04-29T03:41:55.129Z,1009.23
2023-04-29T03:42:55.444Z,1009.16
2023-04-29T03:43:55.807Z,1009.16
2023-04-29T03:44:56.044Z,1009.19
2023-04-29T03:45:56.376Z,1009.13
2023-04-29T03:46:56.642Z,1009.17
2023-04-29T03:47:57.000Z,1009.19
2023-04-29T03:48:57.275Z,1009.22
2023-04-29T03:49:57.578Z,1009.25
2023-04-29T03:50:57.901Z,1009.22
2023-04-29T03:51:58.207Z,1009.22
2023-04-29T03:52:58.550Z,1009.21
2023-04-29T03:53:58.845Z,1009.22
2023-04-29T03:54:59.242Z,1009.22
2023-04-29T03:55:59.603Z,1009.24
2023-04-29T03:56:59.782Z,1009.28
2023-04-29T03:58:00.122Z,1009.25
2023-04-29T03:59:00.390Z,1009.27
2023-04-29T04:00:00.728Z,1009.30
2023-04-29T04:01:01.065Z,1009.33
2023-04-29T04:02:01.469Z,1009.32
2023-04-29T04:03:04.378Z,1009.32
2023-04-29T04:04:01.985Z,1009.36
2023-04-29T04:05:02.205Z,1009.34
2023-04-29T04:06:02.492Z,1009.33
2023-04-29T04:07:02.841Z,1009.34
2023-04-29T04:08:03.077Z,1009.33
2023-04-29T04:09:03.386Z,1009.37
2023-04-29T04:10:03.740Z,1009.32
2023-04-29T04:11:03.915Z,1009.37
2023-04-29T04:12:04.237Z,1009.41
2023-04-29T04:13:04.660Z,1009.41
2023-04-29T04:14:04.862Z,1009.42
2023-04-29T04:15:05.034Z,1009.43
2023-04-29T04:16:05.376Z,1009.47
2023-04-29T04:17:05.675Z,1009.50
2023-04-29T04:18:06.107Z,1009.48
2023-04-29T04:19:06.259Z,1009.49
2023-04-29T04:20:06.605Z,1009.56
2023-04-29T04:21:06.916Z,1009.54
2023-04-29T04:22:07.226Z,1009.52
2023-04-29T04:23:07.573Z,1009.54
2023-04-29T04:24:07.912Z,1009.54
2023-04-29T04:25:08.234Z,1009.57
2023-04-29T04:26:08.485Z,1009.55
2023-04-29T04:27:08.789Z,1009.53
2023-04-29T04:28:09.224Z,1009.52
2023-04-29T04:29:09.387Z,1009.54
2023-04-29T04:30:09.706Z,1009.54
2023-04-29T04:31:10.070Z,1009.59
2023-04-29T04:32:10.383Z,1009.63
2023-04-29T04:33:10.801Z,1009.61
2023-04-29T04:34:11.067Z,1009.62
2023-04-29T04:35:11.281Z,1009.66
2023-04-29T04:36:11.485Z,1009.71
2023-04-29T04:37:11.895Z,1009.76
2023-04-29T04:38:12.186Z,1009.78
2023-04-29T04:39:12.527Z,1009.82
2023-04-29T04:40:12.721Z,1009.83
2023-04-29T04:41:13.079Z,1009.89
2023-04-29T04:42:13.294Z,1009.86
2023-04-29T04:43:13.544Z,1009.83
2023-04-29T04:44:13.914Z,1009.84
2023-04-29T04:45:14.115Z,1009.87
2023-04-29T04:46:14.454Z,1009.87
2023-04-29T04:47:14.644Z,1009.88
2023-04-29T04:48:15.323Z,1009.91
2023-04-29T04:49:15.231Z,1009.92
2023-04-29T04:50:15.434Z,1009.95
2023-04-29T04:51:15.866Z,1010.00
2023-04-29T04:52:16.075Z,1010.04
2023-04-29T04:53:16.320Z,1009.99
2023-04-29T04:54:16.528Z,1010.02
2023-04-29T04:55:16.873Z,1010.03
2023-04-29T04:56:17.246Z,1010.02
2023-04-29T04:57:17.492Z,1010.06
2023-04-29T04:58:17.816Z,1009.99
2023-04-29T04:59:17.986Z,1010.12
2023-04-29T05:00:18.317Z,1010.12
2023-04-29T05:01:18.726Z,1010.16
2023-04-29T05:02:18.977Z,1010.11
2023-04-29T05:03:19.482Z,1010.16
2023-04-29T05:04:19.696Z,1010.13
2023-04-29T05:05:19.797Z,1010.17
2023-04-29T05:06:20.125Z,1010.22
2023-04-29T05:07:20.390Z,1010.23
2023-04-29T05:08:20.740Z,1010.23
2023-04-29T05:09:21.050Z,1010.27
2023-04-29T05:10:21.240Z,1010.30
2023-04-29T05:11:21.472Z,1010.25
2023-04-29T05:12:21.828Z,1010.36
2023-04-29T05:13:22.120Z,1010.31
2023-04-29T05:14:22.314Z,1010.38
2023-04-29T05:15:22.620Z,1010.40
2023-04-29T05:16:22.997Z,1010.40
2023-04-29T05:17:23.203Z,1010.42
2023-04-29T05:18:23.465Z,1010.46
2023-04-29T05:19:23.685Z,1010.47
2023-04-29T05:20:23.993Z,1010.54
2023-04-29T05:21:24.205Z,1010.49
2023-04-29T05:22:24.533Z,1010.52
2023-04-29T05:23:24.902Z,1010.54
2023-04-29T05:24:25.142Z,1010.53
2023-04-29T05:25:25.530Z,1010.54
2023-04-29T05:26:25.797Z,1010.48
2023-04-29T05:27:26.005Z,1010.58
2023-04-29T05:28:28.119Z,1010.53
2023-04-29T05:29:26.658Z,1010.51
2023-04-29T05:30:26.877Z,1010.56
2023-04-29T05:31:27.356Z,1010.54
2023-04-29T05:32:27.414Z,1010.56
2023-04-29T05:33:27.648Z,1010.59
2023-04-29T05:34:27.939Z,1010.58
2023-04-29T05:35:28.237Z,1010.62
2023-04-29T05:36:28.712Z,1010.65
2023-04-29T05:37:28.870Z,1010.66
2023-04-29T05:38:29.260Z,1010.69
2023-04-29T05:39:29.463Z,1010.68
2023-04-29T05:40:29.649Z,1010.71
2023-04-29T05:41:30.008Z,1010.73
2023-04-29T05:42:30.190Z,1010.73
2023-04-29T05:43:30.541Z,1010.75
2023-04-29T05:44:30.764Z,1010.78
2023-04-29T05:45:31.080Z,1010.74
2023-04-29T05:46:31.458Z,1010.80
2023-04-29T05:47:31.693Z,1010.79
2023-04-29T05:48:31.977Z,1010.74
2023-04-29T05:49:32.360Z,1010.79
2023-04-29T05:50:32.714Z,1010.83
2023-04-29T05:51:32.899Z,1010.83
2023-04-29T05:52:33.302Z,1010.85
2023-04-29T05:53:33.495Z,1010.86
2023-04-29T05:54:33.797Z,1010.91
2023-04-29T05:55:34.125Z,1010.92
2023-04-29T05:56:34.469Z,1010.94
2023-04-29T05:57:34.682Z,1010.91
2023-04-29T05:58:35.087Z,1010.93
2023-04-29T05:59:35.360Z,1010.92
2023-04-29T06:00:35.604Z,1010.89
2023-04-29T06:01:35.800Z,1010.93
2023-04-29T06:02:41.574Z,1010.93
2023-04-29T06:03:37.684Z,1010.93
2023-04-29T06:04:37.130Z,1011.01
2023-04-29T06:05:37.309Z,1010.97
2023-04-29T06:06:37.275Z,1010.95
2023-04-29T06:07:37.643Z,1011.00
2023-04-29T06:08:37.918Z,1011.02
2023-04-29T06:09:38.157Z,1011.07
2023-04-29T06:10:38.372Z,1011.06
2023-04-29T06:11:38.602Z,1011.08
2023-04-29T06:12:38.965Z,1011.06
2023-04-29T06:13:39.197Z,1011.12
2023-04-29T06:14:39.427Z,1011.11
2023-04-29T06:15:39.780Z,1011.17
2023-04-29T06:16:40.040Z,1011.18
2023-04-29T06:17:40.374Z,1011.18
2023-04-29T06:18:40.620Z,1011.19
2023-04-29T06:19:40.927Z,1011.19
2023-04-29T06:20:41.272Z,1011.25
2023-04-29T06:21:41.458Z,1011.20
2023-04-29T06:22:41.812Z,1011.25
2023-04-29T06:23:42.056Z,1011.34
2023-04-29T06:24:42.300Z,1011.32
2023-04-29T06:25:42.540Z,1011.32
2023-04-29T06:26:42.772Z,1011.33
2023-04-29T06:27:43.096Z,1011.38
2023-04-29T06:28:43.442Z,1011.34
2023-04-29T06:29:43.790Z,1011.34
2023-04-29T06:30:43.958Z,1011.33
2023-04-29T06:31:44.245Z,1011.40
2023-04-29T06:32:44.457Z,1011.35
2023-04-29T06:33:44.839Z,1011.35
2023-04-29T06:34:45.028Z,1011.40
2023-04-29T06:35:45.297Z,1011.40
2023-04-29T06:36:45.510Z,1011.40
2023-04-29T06:37:45.781Z,1011.44
2023-04-29T06:38:45.970Z,1011.44
2023-04-29T06:39:46.286Z,1011.41
2023-04-29T06:40:46.652Z,1011.46
2023-04-29T06:41:46.914Z,1011.49
2023-04-29T06:42:47.141Z,1011.50
2023-04-29T06:43:48.844Z,1011.48
2023-04-29T06:44:47.612Z,1011.51
2023-04-29T06:45:47.958Z,1011.52
2023-04-29T06:46:48.288Z,1011.56
2023-04-29T06:47:48.432Z,1011.53
2023-04-29T06:48:48.765Z,1011.53
2023-04-29T06:49:49.104Z,1011.55
2023-04-29T06:50:49.300Z,1011.54
2023-04-29T06:51:49.647Z,1011.56
2023-04-29T06:52:50.025Z,1011.58
2023-04-29T06:53:50.232Z,1011.59
2023-04-29T06:54:50.467Z,1011.56
2023-04-29T06:55:50.711Z,1011.56
2023-04-29T06:56:50.979Z,1011.59
2023-04-29T06:57:51.222Z,1011.62
2023-04-29T06:58:51.458Z,1011.61
2023-04-29T06:59:51.952Z,1011.61
2023-04-29T07:00:52.099Z,1011.60
2023-04-29T07:01:52.428Z,1011.65
2023-04-29T07:02:52.795Z,1011.65
2023-04-29T07:03:53.247Z,1011.70
2023-04-29T07:04:53.286Z,1011.69
2023-04-29T07:05:53.594Z,1011.70
2023-04-29T07:06:53.832Z,1011.70
2023-04-29T07:07:54.087Z,1011.74
2023-04-29T07:08:56.795Z,1011.72
2023-04-29T07:09:54.937Z,1011.77
2023-04-29T07:10:54.955Z,1011.78
2023-04-29T07:11:55.200Z,1011.76
2023-04-29T07:12:55.521Z,1011.80
2023-04-29T07:13:55.897Z,1011.79
2023-04-29T07:14:56.108Z,1011.81
2023-04-29T07:15:56.437Z,1011.81
2023-04-29T07:16:56.816Z,1011.83
2023-04-29T07:17:57.049Z,1011.85
2023-04-29T07:18:57.356Z,1011.90
2023-04-29T07:19:57.704Z,1011.89
2023-04-29T07:20:58.069Z,1011.92
2023-04-29T07:21:58.329Z,1011.93
2023-04-29T07:22:58.562Z,1011.93
2023-04-29T07:23:58.803Z,1011.99
2023-04-29T07:24:59.066Z,1011.99
2023-04-29T07:25:59.320Z,1011.99
2023-04-29T07:26:59.547Z,1012.01
2023-04-29T07:27:59.753Z,1012.04
2023-04-29T07:29:00.184Z,1012.03
2023-04-29T07:30:00.410Z,1012.01
2023-04-29T07:31:00.655Z,1012.04
2023-04-29T07:32:00.866Z,1012.03
2023-04-29T07:33:01.196Z,1012.06
2023-04-29T07:34:01.556Z,1012.09
2023-04-29T07:35:01.769Z,1012.10
2023-04-29T07:36:02.125Z,1012.11
2023-04-29T07:37:02.365Z,1012.13
2023-04-29T07:38:02.608Z,1012.16
2023-04-29T07:39:02.831Z,1012.13
2023-04-29T07:40:03.079Z,1012.18
2023-04-29T07:41:03.285Z,1012.14
2023-04-29T07:42:03.656Z,1012.16
2023-04-29T07:43:03.886Z,1012.15
2023-04-29T07:44:04.154Z,1012.13
2023-04-29T07:45:04.362Z,1012.14
2023-04-29T07:46:04.711Z,1012.11
2023-04-29T07:47:05.054Z,1012.12
2023-04-29T07:48:05.330Z,1012.13
2023-04-29T07:49:05.803Z,1012.11
2023-04-29T07:50:05.903Z,1012.16
2023-04-29T07:51:06.215Z,1012.14
2023-04-29T07:52:06.400Z,1012.16
2023-04-29T07:53:06.749Z,1012.20
2023-04-29T07:54:07.006Z,1012.24
2023-04-29T07:55:07.241Z,1012.17
2023-04-29T07:56:07.487Z,1012.21
2023-04-29T07:57:07.703Z,1012.22
2023-04-29T07:58:08.079Z,1012.20
2023-04-29T07:59:08.598Z,1012.19
2023-04-29T08:00:08.668Z,1012.19
2023-04-29T08:01:08.897Z,1012.25
2023-04-29T08:02:09.088Z,1012.23
2023-04-29T08:03:09.539Z,1012.24
2023-04-29T08:04:09.931Z,1012.27
2023-04-29T08:05:10.206Z,1012.27
2023-04-29T08:06:10.352Z,1012.25
2023-04-29T08:07:10.455Z,1012.28
2023-04-29T08:08:10.811Z,1012.26
2023-04-29T08:09:11.172Z,1012.29
2023-04-29T08:10:11.371Z,1012.28
2023-04-29T08:11:11.706Z,1012.27
2023-04-29T08:12:12.092Z,1012.26
2023-04-29T08:13:12.315Z,1012.28
2023-04-29T08:14:12.581Z,1012.29
2023-04-29T08:15:12.913Z,1012.32
2023-04-29T08:16:13.196Z,1012.35
2023-04-29T08:17:13.406Z,1012.32
2023-04-29T08:18:13.655Z,1012.34
2023-04-29T08:19:14.017Z,1012.36
2023-04-29T08:20:14.223Z,1012.36
2023-04-29T08:21:14.554Z,1012.40
2023-04-29T08:22:15.138Z,1012.34
2023-04-29T08:23:15.150Z,1012.41
2023-04-29T08:24:15.516Z,1012.42
2023-04-29T08:25:15.767Z,1012.43
2023-04-29T08:26:15.982Z,1012.41
2023-04-29T08:27:16.330Z,1012.39
2023-04-29T08:28:16.655Z,1012.42
2023-04-29T08:29:16.997Z,1012.47
2023-04-29T08:30:17.355Z,1012.49
2023-04-29T08:31:17.579Z,1012.49
2023-04-29T08:32:17.892Z,1012.48
2023-04-29T08:33:18.133Z,1012.52
2023-04-29T08:34:18.451Z,1012.49
2023-04-29T08:35:18.644Z,1012.51
2023-04-29T08:36:18.869Z,1012.52
2023-04-29T08:37:19.259Z,1012.54
2023-04-29T08:38:19.474Z,1012.56
2023-04-29T08:39:19.691Z,1012.51
2023-04-29T08:40:20.051Z,1012.54
2023-04-29T08:41:20.322Z,1012.57
2023-04-29T08:42:20.547Z,1012.61
2023-04-29T08:43:20.795Z,1012.65
2023-04-29T08:44:21.029Z,1012.62
2023-04-29T08:45:21.274Z,1012.63
2023-04-29T08:46:21.546Z,1012.67
2023-04-29T08:47:21.834Z,1012.72
2023-04-29T08:48:22.121Z,1012.67
2023-04-29T08:49:22.292Z,1012.71
2023-04-29T08:50:22.671Z,1012.74
2023-04-29T08:51:22.877Z,1012.76
2023-04-29T08:52:23.267Z,1012.76
2023-04-29T08:53:23.455Z,1012.77
2023-04-29T08:54:23.790Z,1012.75
2023-04-29T08:55:24.120Z,1012.75
2023-04-29T08:56:25.307Z,1012.74
2023-04-29T08:57:24.716Z,1012.79
2023-04-29T08:58:24.974Z,1012.79
2023-04-29T08:59:25.350Z,1012.82
2023-04-29T09:00:25.516Z,1012.82
2023-04-29T09:01:25.906Z,1012.82
2023-04-29T09:02:26.189Z,1012.81
2023-04-29T09:03:26.420Z,1012.86
2023-04-29T09:04:26.674Z,1012.84
2023-04-29T09:05:26.822Z,1012.85
2023-04-29T09:06:27.160Z,1012.87
2023-04-29T09:07:27.402Z,1012.85
2023-04-29T09:08:27.742Z,1012.83
2023-04-29T09:09:28.108Z,1012.84
2023-04-29T09:10:28.360Z,1012.82
2023-04-29T09:11:28.600Z,1012.94
2023-04-29T09:12:28.817Z,1012.86
2023-04-29T09:13:29.171Z,1012.89
2023-04-29T09:14:29.502Z,1012.89
2023-04-29T09:15:29.841Z,1012.98
2023-04-29T09:16:30.214Z,1012.91
2023-04-29T09:17:30.514Z,1012.88
2023-04-29T09:18:30.717Z,1012.96
2023-04-29T09:19:30.993Z,1012.95
2023-04-29T09:20:31.200Z,1012.95
2023-04-29T09:21:31.426Z,1012.95
2023-04-29T09:22:31.752Z,1012.95
2023-04-29T09:23:32.070Z,1012.99
2023-04-29T09:24:32.473Z,1012.96
2023-04-29T09:25:32.661Z,1012.96
2023-04-29T09:26:32.990Z,1012.96
2023-04-29T09:27:33.245Z,1013.02
2023-04-29T09:28:33.465Z,1012.99
2023-04-29T09:29:33.821Z,1013.04
2023-04-29T09:30:34.038Z,1012.95
2023-04-29T09:31:34.415Z,1012.99
2023-04-29T09:32:35.874Z,1012.94
2023-04-29T09:33:34.969Z,1012.90
2023-04-29T09:34:35.195Z,1012.97
2023-04-29T09:35:35.547Z,1012.91
2023-04-29T09:36:35.874Z,1012.89
2023-04-29T09:37:36.262Z,1012.86
2023-04-29T09:38:36.475Z,1012.88
2023-04-29T09:39:36.789Z,1012.90
2023-04-29T09:40:50.210Z,1012.87
2023-04-29T09:41:38.445Z,1012.90
2023-04-29T09:42:37.695Z,1012.92
2023-04-29T09:43:38.032Z,1012.91
2023-04-29T09:44:38.410Z,1012.90
2023-04-29T09:45:38.631Z,1012.90
2023-04-29T09:46:39.061Z,1012.93
2023-04-29T09:47:39.305Z,1012.95
2023-04-29T09:48:39.476Z,1012.93
2023-04-29T09:49:39.761Z,1012.93
2023-04-29T09:50:39.951Z,1012.95
2023-04-29T09:51:40.164Z,1012.98
2023-04-29T09:52:40.540Z,1013.00
2023-04-29T09:53:40.821Z,1013.01
2023-04-29T09:54:41.027Z,1013.04
2023-04-29T09:55:41.266Z,1013.06
2023-04-29T09:56:41.495Z,1013.05
2023-04-29T09:57:44.914Z,1013.00
2023-04-29T09:58:42.133Z,1013.12
2023-04-29T09:59:42.375Z,1013.15
2023-04-29T10:00:42.706Z,1013.11
2023-04-29T10:01:43.010Z,1013.11
2023-04-29T10:02:43.410Z,1013.16
2023-04-29T10:03:43.620Z,1013.13
2023-04-29T10:04:43.836Z,1013.17
2023-04-29T10:05:44.161Z,1013.17
2023-04-29T10:06:44.407Z,1013.18
2023-04-29T10:07:44.729Z,1013.20
2023-04-29T10:08:45.092Z,1013.23
2023-04-29T10:09:45.295Z,1013.23
2023-04-29T10:10:45.671Z,1013.22
2023-04-29T10:11:45.914Z,1013.26
2023-04-29T10:12:46.152Z,1013.24
2023-04-29T10:13:46.400Z,1013.26
2023-04-29T10:14:46.617Z,1013.23
2023-04-29T10:15:46.993Z,1013.27
2023-04-29T10:16:47.228Z,1013.33
2023-04-29T10:17:47.457Z,1013.33
2023-04-29T10:18:47.830Z,1013.33
2023-04-29T10:19:48.118Z,1013.38
2023-04-29T10:20:48.465Z,1013.41
2023-04-29T10:21:50.023Z,1013.41
2023-04-29T10:22:48.962Z,1013.42
2023-04-29T10:23:49.148Z,1013.40
2023-04-29T10:24:49.466Z,1013.41
2023-04-29T10:25:49.675Z,1013.38
2023-04-29T10:26:49.902Z,1013.36
2023-04-29T10:27:50.171Z,1013.43
2023-04-29T10:28:50.377Z,1013.41
2023-04-29T10:29:50.572Z,1013.41
2023-04-29T10:30:50.926Z,1013.44
2023-04-29T10:31:51.223Z,1013.40
2023-04-29T10:32:52.786Z,1013.46
2023-04-29T10:33:51.706Z,1013.39
2023-04-29T10:34:52.159Z,1013.47
2023-04-29T10:35:52.208Z,1013.49
2023-04-29T10:36:52.426Z,1013.44
2023-04-29T10:37:52.762Z,1013.41
2023-04-29T10:38:53.157Z,1013.43
2023-04-29T10:39:53.342Z,1013.45
2023-04-29T10:40:53.671Z,1013.43
2023-04-29T10:41:54.034Z,1013.44
2023-04-29T10:42:54.246Z,1013.44
2023-04-29T10:43:54.592Z,1013.47
2023-04-29T10:44:54.850Z,1013.52
2023-04-29T10:45:55.068Z,1013.52
2023-04-29T10:46:55.418Z,1013.55
2023-04-29T10:47:55.780Z,1013.51
2023-04-29T10:48:55.990Z,1013.55
2023-04-29T10:49:56.351Z,1013.53
2023-04-29T10:50:56.561Z,1013.54
2023-04-29T10:51:56.906Z,1013.57
2023-04-29T10:52:57.241Z,1013.58
2023-04-29T10:53:57.469Z,1013.59
2023-04-29T10:54:57.698Z,1013.57
2023-04-29T10:55:58.081Z,1013.56
2023-04-29T10:56:58.285Z,1013.58
2023-04-29T10:57:58.654Z,1013.63
2023-04-29T10:58:58.874Z,1013.56
2023-04-29T10:59:59.216Z,1013.59
2023-04-29T11:00:59.455Z,1013.63
2023-04-29T11:01:59.749Z,1013.67
2023-04-29T11:03:00.199Z,1013.59
2023-04-29T11:04:00.543Z,1013.60
2023-04-29T11:05:00.741Z,1013.64
2023-04-29T11:06:00.931Z,1013.68
2023-04-29T11:07:01.132Z,1013.69
2023-04-29T11:08:01.519Z,1013.75
2023-04-29T11:09:01.757Z,1013.74
2023-04-29T11:10:02.030Z,1013.73
2023-04-29T11:11:02.276Z,1013.72
2023-04-29T11:12:02.489Z,1013.71
2023-04-29T11:13:02.706Z,1013.74
2023-04-29T11:14:02.952Z,1013.71
2023-04-29T11:15:03.199Z,1013.73
2023-04-29T11:16:03.575Z,1013.77
2023-04-29T11:17:03.741Z,1013.73
2023-04-29T11:18:04.133Z,1013.72
2023-04-29T11:19:04.318Z,1013.70
2023-04-29T11:20:04.634Z,1013.71
2023-04-29T11:21:04.979Z,1013.73
2023-04-29T11:22:05.210Z,1013.74
2023-04-29T11:23:05.498Z,1013.72
2023-04-29T11:24:05.718Z,1013.74
2023-04-29T11:25:05.962Z,1013.80
2023-04-29T11:26:06.196Z,1013.76
2023-04-29T11:27:06.450Z,1013.75
2023-04-29T11:28:06.693Z,1013.73
2023-04-29T11:29:06.914Z,1013.73
2023-04-29T11:30:07.292Z,1013.72
2023-04-29T11:31:07.730Z,1013.77
2023-04-29T11:32:07.953Z,1013.79
2023-04-29T11:33:08.594Z,1013.82
2023-04-29T11:34:08.536Z,1013.84
2023-04-29T11:35:08.750Z,1013.80
2023-04-29T11:36:09.067Z,1013.83
2023-04-29T11:37:09.481Z,1013.81
2023-04-29T11:38:09.661Z,1013.86
2023-04-29T11:39:09.987Z,1013.87
2023-04-29T11:40:10.356Z,1013.88
2023-04-29T11:41:10.600Z,1013.86
2023-04-29T11:42:10.847Z,1013.87
2023-04-29T11:43:11.135Z,1013.84
2023-04-29T11:44:11.327Z,1013.85
2023-04-29T11:45:11.571Z,1013.88
2023-04-29T11:46:11.834Z,1013.92
2023-04-29T11:47:12.319Z,1013.90
2023-04-29T11:48:12.568Z,1013.90
2023-04-29T11:49:12.709Z,1013.89
2023-04-29T11:50:13.070Z,1013.90
2023-04-29T11:51:13.362Z,1013.92
2023-04-29T11:52:13.525Z,1013.91
2023-04-29T11:53:13.887Z,1013.87
2023-04-29T11:54:14.090Z,1013.94
2023-04-29T11:55:14.460Z,1013.96
2023-04-29T11:56:14.696Z,1013.99
2023-04-29T11:57:14.918Z,1013.95
2023-04-29T11:58:15.297Z,1013.96
2023-04-29T11:59:15.632Z,1013.97
2023-04-29T12:00:15.871Z,1013.97
2023-04-29T12:01:16.143Z,1013.94
2023-04-29T12:02:16.600Z,1013.97
2023-04-29T12:03:16.943Z,1013.96
2023-04-29T12:04:17.455Z,1013.95
2023-04-29T12:05:17.860Z,1013.94
2023-04-29T12:06:17.653Z,1013.96
2023-04-29T12:07:17.854Z,1013.94
2023-04-29T12:08:18.128Z,1013.96
2023-04-29T12:09:18.342Z,1013.96